sensor_id;sensor_type;location;lat;lon;timestamp;pressure;altitude;pressure_sealevel;temperature;humidity
36834;BME280;48003;52.084;5.224;2023-04-26T00:00:44;102015.0;;;8.31;67.63
36834;BME280;48003;52.084;5.224;2023-04-26T00:02:20;102013.0;;;8.33;67.62
36834;BME280;48003;52.084;5.224;2023-04-26T00:03:56;102007.0;;;8.39;67.36
36834;BME280;48003;52.084;5.224;2023-04-26T00:07:08;102012.0;;;8.35;67.67
36834;BME280;48003;52.084;5.224;2023-04-26T00:08:44;102008.0;;;8.31;67.97
36834;BME280;48003;52.084;5.224;2023-04-26T00:10:21;102009.0;;;8.24;68.0
36834;BME280;48003;52.084;5.224;2023-04-26T00:11:57;102012.0;;;8.22;68.05
36834;BME280;48003;52.084;5.224;2023-04-26T00:15:10;102012.0;;;8.17;68.11
36834;BME280;48003;52.084;5.224;2023-04-26T00:16:46;102007.0;;;8.14;67.94
36834;BME280;48003;52.084;5.224;2023-04-26T00:18:22;102007.0;;;8.14;67.83
36834;BME280;48003;52.084;5.224;2023-04-26T00:21:35;102006.0;;;8.1;67.77
36834;BME280;48003;52.084;5.224;2023-04-26T00:23:12;102010.0;;;8.06;67.77
36834;BME280;48003;52.084;5.224;2023-04-26T00:24:48;102009.0;;;8.0;68.08
36834;BME280;48003;52.084;5.224;2023-04-26T00:28:00;102008.0;;;7.95;68.34
36834;BME280;48003;52.084;5.224;2023-04-26T00:29:36;102007.0;;;7.92;68.49
36834;BME280;48003;52.084;5.224;2023-04-26T00:31:13;102012.0;;;7.86;68.64
36834;BME280;48003;52.084;5.224;2023-04-26T00:34:31;102011.0;;;7.82;68.66
36834;BME280;48003;52.084;5.224;2023-04-26T00:36:07;102010.0;;;7.78;68.84
36834;BME280;48003;52.084;5.224;2023-04-26T00:37:43;102016.0;;;7.75;68.97
36834;BME280;48003;52.084;5.224;2023-04-26T00:39:19;102011.0;;;7.69;68.97
36834;BME280;48003;52.084;5.224;2023-04-26T00:42:31;102012.0;;;7.68;68.97
36834;BME280;48003;52.084;5.224;2023-04-26T00:44:07;102008.0;;;7.61;69.0
36834;BME280;48003;52.084;5.224;2023-04-26T00:45:44;102008.0;;;7.57;69.11
36834;BME280;48003;52.084;5.224;2023-04-26T00:48:56;102006.0;;;7.53;69.19
36834;BME280;48003;52.084;5.224;2023-04-26T00:50:33;102006.0;;;7.53;69.31
36834;BME280;48003;52.084;5.224;2023-04-26T00:52:09;102005.0;;;7.51;69.48
36834;BME280;48003;52.084;5.224;2023-04-26T00:55:22;102009.0;;;7.49;69.66
36834;BME280;48003;52.084;5.224;2023-04-26T00:57:00;102005.0;;;7.44;69.66
36834;BME280;48003;52.084;5.224;2023-04-26T00:58:37;102005.0;;;7.44;69.73
36834;BME280;48003;52.084;5.224;2023-04-26T01:00:14;102006.0;;;7.38;70.08
36834;BME280;48003;52.084;5.224;2023-04-26T01:03:26;102006.0;;;7.32;70.11
36834;BME280;48003;52.084;5.224;2023-04-26T01:05:03;102002.0;;;7.3;70.02
36834;BME280;48003;52.084;5.224;2023-04-26T01:06:39;102008.0;;;7.32;69.98
36834;BME280;48003;52.084;5.224;2023-04-26T01:09:54;102007.0;;;7.33;69.98
36834;BME280;48003;52.084;5.224;2023-04-26T01:11:31;102002.0;;;7.3;70.05
36834;BME280;48003;52.084;5.224;2023-04-26T01:13:08;102005.0;;;7.28;70.05
36834;BME280;48003;52.084;5.224;2023-04-26T01:14:45;102006.0;;;7.27;69.97
36834;BME280;48003;52.084;5.224;2023-04-26T01:17:59;102009.0;;;7.25;69.87
36834;BME280;48003;52.084;5.224;2023-04-26T01:19:34;102012.0;;;7.19;69.94
36834;BME280;48003;52.084;5.224;2023-04-26T01:21:11;102010.0;;;7.15;69.72
36834;BME280;48003;52.084;5.224;2023-04-26T01:24:23;102013.0;;;7.1;69.73
36834;BME280;48003;52.084;5.224;2023-04-26T01:25:59;102014.0;;;7.0;69.75
36834;BME280;48003;52.084;5.224;2023-04-26T01:27:35;102012.0;;;6.99;70.0
36834;BME280;48003;52.084;5.224;2023-04-26T01:30:50;102013.0;;;7.04;70.27
36834;BME280;48003;52.084;5.224;2023-04-26T01:32:26;102010.0;;;6.96;70.61
36834;BME280;48003;52.084;5.224;2023-04-26T01:34:02;102009.0;;;6.94;70.66
36834;BME280;48003;52.084;5.224;2023-04-26T01:35:39;102010.0;;;6.96;70.55
36834;BME280;48003;52.084;5.224;2023-04-26T01:38:51;102009.0;;;6.95;70.55
36834;BME280;48003;52.084;5.224;2023-04-26T01:40:27;102014.0;;;6.92;70.55
36834;BME280;48003;52.084;5.224;2023-04-26T01:42:04;102019.0;;;6.9;70.41
36834;BME280;48003;52.084;5.224;2023-04-26T01:45:16;102015.0;;;6.89;70.41
36834;BME280;48003;52.084;5.224;2023-04-26T01:46:52;102013.0;;;6.89;70.14
36834;BME280;48003;52.084;5.224;2023-04-26T01:48:29;102009.0;;;6.89;70.28
36834;BME280;48003;52.084;5.224;2023-04-26T01:51:42;102009.0;;;6.9;70.17
36834;BME280;48003;52.084;5.224;2023-04-26T01:53:18;102001.0;;;6.84;70.22
36834;BME280;48003;52.084;5.224;2023-04-26T01:54:55;102000.0;;;6.86;70.2
36834;BME280;48003;52.084;5.224;2023-04-26T01:58:07;102001.0;;;6.77;70.36
36834;BME280;48003;52.084;5.224;2023-04-26T01:59:43;102006.0;;;6.69;70.44
36834;BME280;48003;52.084;5.224;2023-04-26T02:01:20;102002.0;;;6.7;70.53
36834;BME280;48003;52.084;5.224;2023-04-26T02:02:56;102003.0;;;6.87;69.89
36834;BME280;48003;52.084;5.224;2023-04-26T02:06:10;102001.0;;;6.86;69.53
36834;BME280;48003;52.084;5.224;2023-04-26T02:07:46;102003.0;;;6.81;69.72
36834;BME280;48003;52.084;5.224;2023-04-26T02:09:22;102008.0;;;6.73;70.24
36834;BME280;48003;52.084;5.224;2023-04-26T02:12:34;102007.0;;;6.63;70.61
36834;BME280;48003;52.084;5.224;2023-04-26T02:14:11;102002.0;;;6.64;70.91
36834;BME280;48003;52.084;5.224;2023-04-26T02:15:48;102007.0;;;6.68;70.78
36834;BME280;48003;52.084;5.224;2023-04-26T02:19:02;102002.0;;;6.63;70.55
36834;BME280;48003;52.084;5.224;2023-04-26T02:20:39;102005.0;;;6.58;70.22
36834;BME280;48003;52.084;5.224;2023-04-26T02:22:15;102005.0;;;6.5;70.41
36834;BME280;48003;52.084;5.224;2023-04-26T02:23:52;102003.0;;;6.42;71.11
36834;BME280;48003;52.084;5.224;2023-04-26T02:27:04;102005.0;;;6.42;71.17
36834;BME280;48003;52.084;5.224;2023-04-26T02:28:40;102000.0;;;6.41;71.22
36834;BME280;48003;52.084;5.224;2023-04-26T02:30:17;102005.0;;;6.39;71.25
36834;BME280;48003;52.084;5.224;2023-04-26T02:33:29;102005.0;;;6.37;70.97
36834;BME280;48003;52.084;5.224;2023-04-26T02:35:06;102010.0;;;6.37;70.77
36834;BME280;48003;52.084;5.224;2023-04-26T02:36:42;102011.0;;;6.34;70.69
36834;BME280;48003;52.084;5.224;2023-04-26T02:39:55;102012.0;;;6.27;70.87
36834;BME280;48003;52.084;5.224;2023-04-26T02:41:31;102012.0;;;6.24;71.05
36834;BME280;48003;52.084;5.224;2023-04-26T02:43:08;102011.0;;;6.2;71.09
36834;BME280;48003;52.084;5.224;2023-04-26T02:44:44;102012.0;;;6.18;71.22
36834;BME280;48003;52.084;5.224;2023-04-26T02:47:59;102005.0;;;6.13;71.28
36834;BME280;48003;52.084;5.224;2023-04-26T02:49:35;102009.0;;;6.16;71.31
36834;BME280;48003;52.084;5.224;2023-04-26T02:51:11;102012.0;;;6.14;71.33
36834;BME280;48003;52.084;5.224;2023-04-26T02:54:24;102007.0;;;6.11;71.33
36834;BME280;48003;52.084;5.224;2023-04-26T02:56:00;102005.0;;;6.1;71.41
36834;BME280;48003;52.084;5.224;2023-04-26T02:57:36;102001.0;;;6.08;71.37
36834;BME280;48003;52.084;5.224;2023-04-26T03:00:48;102000.0;;;6.06;71.36
36834;BME280;48003;52.084;5.224;2023-04-26T03:02:24;102001.0;;;6.02;71.33
36834;BME280;48003;52.084;5.224;2023-04-26T03:04:00;102002.0;;;5.98;71.49
36834;BME280;48003;52.084;5.224;2023-04-26T03:05:36;101995.0;;;5.96;71.61
36834;BME280;48003;52.084;5.224;2023-04-26T03:08:50;102000.0;;;5.96;71.56
36834;BME280;48003;52.084;5.224;2023-04-26T03:10:26;102000.0;;;6.06;71.45
36834;BME280;48003;52.084;5.224;2023-04-26T03:12:02;102001.0;;;6.14;71.3
36834;BME280;48003;52.084;5.224;2023-04-26T03:15:14;101998.0;;;6.05;71.53
36834;BME280;48003;52.084;5.224;2023-04-26T03:16:50;101993.0;;;5.99;71.66
36834;BME280;48003;52.084;5.224;2023-04-26T03:18:26;101992.0;;;5.95;71.72
36834;BME280;48003;52.084;5.224;2023-04-26T03:21:40;101991.0;;;5.94;71.72
36834;BME280;48003;52.084;5.224;2023-04-26T03:23:16;101995.0;;;5.92;71.72
36834;BME280;48003;52.084;5.224;2023-04-26T03:24:52;101992.0;;;5.92;71.66
36834;BME280;48003;52.084;5.224;2023-04-26T03:28:04;101994.0;;;5.93;71.72
36834;BME280;48003;52.084;5.224;2023-04-26T03:29:40;101996.0;;;5.91;71.64
36834;BME280;48003;52.084;5.224;2023-04-26T03:31:16;101993.0;;;5.86;71.66
36834;BME280;48003;52.084;5.224;2023-04-26T03:32:54;101995.0;;;5.86;71.73
36834;BME280;48003;52.084;5.224;2023-04-26T03:36:06;101984.0;;;5.85;71.56
36834;BME280;48003;52.084;5.224;2023-04-26T03:37:43;101985.0;;;5.86;71.55
36834;BME280;48003;52.084;5.224;2023-04-26T03:39:19;101984.0;;;5.87;71.52
36834;BME280;48003;52.084;5.224;2023-04-26T03:42:31;101986.0;;;5.84;71.52
36834;BME280;48003;52.084;5.224;2023-04-26T03:44:07;101988.0;;;5.78;71.56
36834;BME280;48003;52.084;5.224;2023-04-26T03:45:45;101990.0;;;5.77;71.8
36834;BME280;48003;52.084;5.224;2023-04-26T03:48:58;101984.0;;;5.74;72.05
36834;BME280;48003;52.084;5.224;2023-04-26T03:50:34;101985.0;;;5.74;71.99
36834;BME280;48003;52.084;5.224;2023-04-26T03:52:10;101987.0;;;5.73;71.83
36834;BME280;48003;52.084;5.224;2023-04-26T03:53:46;101993.0;;;5.69;71.72
36834;BME280;48003;52.084;5.224;2023-04-26T03:56:58;101996.0;;;5.65;71.97
36834;BME280;48003;52.084;5.224;2023-04-26T03:58:34;101995.0;;;5.66;72.19
36834;BME280;48003;52.084;5.224;2023-04-26T04:00:12;101994.0;;;5.61;72.34
36834;BME280;48003;52.084;5.224;2023-04-26T04:03:24;101993.0;;;5.59;72.53
36834;BME280;48003;52.084;5.224;2023-04-26T04:05:00;101992.0;;;5.6;72.44
36834;BME280;48003;52.084;5.224;2023-04-26T04:06:36;101991.0;;;5.6;72.47
36834;BME280;48003;52.084;5.224;2023-04-26T04:09:49;101993.0;;;5.58;72.48
36834;BME280;48003;52.084;5.224;2023-04-26T04:11:24;101994.0;;;5.57;72.44
36834;BME280;48003;52.084;5.224;2023-04-26T04:13:00;101991.0;;;5.54;72.47
36834;BME280;48003;52.084;5.224;2023-04-26T04:14:37;101991.0;;;5.54;72.52
36834;BME280;48003;52.084;5.224;2023-04-26T04:17:49;101988.0;;;5.54;72.34
36834;BME280;48003;52.084;5.224;2023-04-26T04:19:26;101992.0;;;5.52;72.34
36834;BME280;48003;52.084;5.224;2023-04-26T04:21:02;101991.0;;;5.5;72.19
36834;BME280;48003;52.084;5.224;2023-04-26T04:24:14;101989.0;;;5.49;72.25
36834;BME280;48003;52.084;5.224;2023-04-26T04:25:50;101986.0;;;5.48;72.3
36834;BME280;48003;52.084;5.224;2023-04-26T04:27:27;101986.0;;;5.5;72.28
36834;BME280;48003;52.084;5.224;2023-04-26T04:30:40;101987.0;;;5.45;72.36
36834;BME280;48003;52.084;5.224;2023-04-26T04:32:16;101988.0;;;5.41;72.48
36834;BME280;48003;52.084;5.224;2023-04-26T04:33:52;101989.0;;;5.4;72.62
36834;BME280;48003;52.084;5.224;2023-04-26T04:37:06;101989.0;;;5.42;72.63
36834;BME280;48003;52.084;5.224;2023-04-26T04:38:42;101992.0;;;5.41;72.7
36834;BME280;48003;52.084;5.224;2023-04-26T04:40:18;101994.0;;;5.4;72.84
36834;BME280;48003;52.084;5.224;2023-04-26T04:41:55;102000.0;;;5.44;72.7
36834;BME280;48003;52.084;5.224;2023-04-26T04:45:08;101998.0;;;5.38;73.09
36834;BME280;48003;52.084;5.224;2023-04-26T04:46:44;101997.0;;;5.43;73.11
36834;BME280;48003;52.084;5.224;2023-04-26T04:48:20;101996.0;;;5.4;73.19
36834;BME280;48003;52.084;5.224;2023-04-26T04:51:32;101993.0;;;5.38;73.33
36834;BME280;48003;52.084;5.224;2023-04-26T04:53:08;101998.0;;;5.47;73.19
36834;BME280;48003;52.084;5.224;2023-04-26T04:54:44;101997.0;;;5.49;73.22
36834;BME280;48003;52.084;5.224;2023-04-26T04:57:57;102005.0;;;5.54;73.19
36834;BME280;48003;52.084;5.224;2023-04-26T04:59:33;102003.0;;;5.57;73.02
36834;BME280;48003;52.084;5.224;2023-04-26T05:02:45;102007.0;;;5.57;73.22
36834;BME280;48003;52.084;5.224;2023-04-26T05:05:58;102011.0;;;5.56;73.47
36834;BME280;48003;52.084;5.224;2023-04-26T05:07:34;102014.0;;;5.6;73.61
36834;BME280;48003;52.084;5.224;2023-04-26T05:09:11;102013.0;;;5.63;73.89
36834;BME280;48003;52.084;5.224;2023-04-26T05:12:23;102007.0;;;5.69;73.92
36834;BME280;48003;52.084;5.224;2023-04-26T05:13:59;102009.0;;;5.72;73.94
36834;BME280;48003;52.084;5.224;2023-04-26T05:15:35;102013.0;;;5.7;74.02
36834;BME280;48003;52.084;5.224;2023-04-26T05:18:48;102014.0;;;5.73;74.14
36834;BME280;48003;52.084;5.224;2023-04-26T05:20:24;102014.0;;;5.8;74.47
36834;BME280;48003;52.084;5.224;2023-04-26T05:22:01;102014.0;;;5.86;74.77
36834;BME280;48003;52.084;5.224;2023-04-26T05:25:14;102010.0;;;6.0;74.45
36834;BME280;48003;52.084;5.224;2023-04-26T05:26:50;102009.0;;;6.05;74.58
36834;BME280;48003;52.084;5.224;2023-04-26T05:28:26;102015.0;;;6.11;74.78
36834;BME280;48003;52.084;5.224;2023-04-26T05:30:03;102015.0;;;6.22;74.86
36834;BME280;48003;52.084;5.224;2023-04-26T05:33:15;102010.0;;;6.4;74.64
36834;BME280;48003;52.084;5.224;2023-04-26T05:34:51;102009.0;;;6.55;74.36
36834;BME280;48003;52.084;5.224;2023-04-26T05:36:28;102005.0;;;6.59;74.39
36834;BME280;48003;52.084;5.224;2023-04-26T05:39:40;102009.0;;;6.7;74.36
36834;BME280;48003;52.084;5.224;2023-04-26T05:41:16;102008.0;;;6.79;74.25
36834;BME280;48003;52.084;5.224;2023-04-26T05:42:52;102007.0;;;6.85;74.3
36834;BME280;48003;52.084;5.224;2023-04-26T05:46:05;102012.0;;;7.02;74.12
36834;BME280;48003;52.084;5.224;2023-04-26T05:47:41;102017.0;;;7.02;73.84
36834;BME280;48003;52.084;5.224;2023-04-26T05:49:17;102013.0;;;7.12;73.61
36834;BME280;48003;52.084;5.224;2023-04-26T05:50:53;102010.0;;;7.38;73.22
36834;BME280;48003;52.084;5.224;2023-04-26T05:54:05;102014.0;;;7.42;72.72
36834;BME280;48003;52.084;5.224;2023-04-26T05:55:42;102016.0;;;7.64;71.97
36834;BME280;48003;52.084;5.224;2023-04-26T05:57:17;102019.0;;;7.66;72.03
36834;BME280;48003;52.084;5.224;2023-04-26T06:00:30;102018.0;;;7.88;70.83
36834;BME280;48003;52.084;5.224;2023-04-26T06:02:06;102022.0;;;7.47;72.13
36834;BME280;48003;52.084;5.224;2023-04-26T06:03:43;102021.0;;;7.95;71.27
36834;BME280;48003;52.084;5.224;2023-04-26T06:06:56;102018.0;;;8.03;70.67
36834;BME280;48003;52.084;5.224;2023-04-26T06:08:33;102019.0;;;7.9;71.25
36834;BME280;48003;52.084;5.224;2023-04-26T06:10:09;102015.0;;;8.09;70.61
36834;BME280;48003;52.084;5.224;2023-04-26T06:11:46;102010.0;;;8.17;70.19
36834;BME280;48003;52.084;5.224;2023-04-26T06:14:58;102016.0;;;7.91;71.05
36834;BME280;48003;52.084;5.224;2023-04-26T06:16:34;102017.0;;;7.91;70.62
36834;BME280;48003;52.084;5.224;2023-04-26T06:18:10;102018.0;;;8.22;69.95
36834;BME280;48003;52.084;5.224;2023-04-26T06:21:23;102017.0;;;8.28;70.37
36834;BME280;48003;52.084;5.224;2023-04-26T06:22:59;102020.0;;;8.53;69.2
36834;BME280;48003;52.084;5.224;2023-04-26T06:24:36;102022.0;;;8.34;69.62
36834;BME280;48003;52.084;5.224;2023-04-26T06:27:48;102023.0;;;8.4;69.61
36834;BME280;48003;52.084;5.224;2023-04-26T06:29:24;102024.0;;;8.49;69.36
36834;BME280;48003;52.084;5.224;2023-04-26T06:31:00;102023.0;;;8.63;69.09
36834;BME280;48003;52.084;5.224;2023-04-26T06:34:13;102028.0;;;8.39;69.08
36834;BME280;48003;52.084;5.224;2023-04-26T06:35:50;102034.0;;;8.09;69.44
36834;BME280;48003;52.084;5.224;2023-04-26T06:37:26;102036.0;;;8.14;70.52
36834;BME280;48003;52.084;5.224;2023-04-26T06:39:03;102037.0;;;8.43;69.19
36834;BME280;48003;52.084;5.224;2023-04-26T06:42:15;102033.0;;;8.52;69.2
36834;BME280;48003;52.084;5.224;2023-04-26T06:43:51;102032.0;;;9.06;66.72
36834;BME280;48003;52.084;5.224;2023-04-26T06:45:28;102033.0;;;8.94;66.09
36834;BME280;48003;52.084;5.224;2023-04-26T06:48:42;102039.0;;;8.51;67.38
36834;BME280;48003;52.084;5.224;2023-04-26T06:50:18;102038.0;;;8.9;66.5
36834;BME280;48003;52.084;5.224;2023-04-26T06:51:54;102037.0;;;8.76;66.58
36834;BME280;48003;52.084;5.224;2023-04-26T06:55:07;102039.0;;;8.66;67.28
36834;BME280;48003;52.084;5.224;2023-04-26T06:56:44;102036.0;;;9.19;64.91
36834;BME280;48003;52.084;5.224;2023-04-26T06:58:20;102042.0;;;9.33;63.23
36834;BME280;48003;52.084;5.224;2023-04-26T06:59:57;102040.0;;;9.23;63.45
36834;BME280;48003;52.084;5.224;2023-04-26T07:03:10;102043.0;;;9.41;62.67
36834;BME280;48003;52.084;5.224;2023-04-26T07:04:46;102043.0;;;9.61;62.12
36834;BME280;48003;52.084;5.224;2023-04-26T07:06:23;102037.0;;;9.64;61.33
36834;BME280;48003;52.084;5.224;2023-04-26T07:09:36;102038.0;;;9.58;60.75
36834;BME280;48003;52.084;5.224;2023-04-26T07:11:12;102043.0;;;9.64;60.62
36834;BME280;48003;52.084;5.224;2023-04-26T07:12:48;102040.0;;;9.44;60.6
36834;BME280;48003;52.084;5.224;2023-04-26T07:16:01;102037.0;;;9.64;60.77
36834;BME280;48003;52.084;5.224;2023-04-26T07:17:37;102036.0;;;9.56;60.94
36834;BME280;48003;52.084;5.224;2023-04-26T07:19:13;102036.0;;;9.82;60.09
36834;BME280;48003;52.084;5.224;2023-04-26T07:20:48;102033.0;;;9.25;62.04
36834;BME280;48003;52.084;5.224;2023-04-26T07:24:00;102034.0;;;9.42;61.57
36834;BME280;48003;52.084;5.224;2023-04-26T07:25:36;102033.0;;;9.9;58.91
36834;BME280;48003;52.084;5.224;2023-04-26T07:27:13;102033.0;;;10.01;59.19
36834;BME280;48003;52.084;5.224;2023-04-26T07:30:26;102037.0;;;9.71;59.56
36834;BME280;48003;52.084;5.224;2023-04-26T07:32:02;102038.0;;;9.96;59.11
36834;BME280;48003;52.084;5.224;2023-04-26T07:33:38;102034.0;;;10.14;58.63
36834;BME280;48003;52.084;5.224;2023-04-26T07:36:51;102040.0;;;9.9;58.77
36834;BME280;48003;52.084;5.224;2023-04-26T07:38:27;102039.0;;;10.09;58.53
36834;BME280;48003;52.084;5.224;2023-04-26T07:40:04;102044.0;;;9.81;58.77
36834;BME280;48003;52.084;5.224;2023-04-26T07:43:16;102033.0;;;10.29;55.84
36834;BME280;48003;52.084;5.224;2023-04-26T07:44:53;102037.0;;;10.4;55.77
36834;BME280;48003;52.084;5.224;2023-04-26T07:46:29;102039.0;;;10.36;55.49
36834;BME280;48003;52.084;5.224;2023-04-26T07:48:07;102038.0;;;10.43;55.6
36834;BME280;48003;52.084;5.224;2023-04-26T07:51:20;102037.0;;;10.4;55.96
36834;BME280;48003;52.084;5.224;2023-04-26T07:52:56;102045.0;;;10.3;55.84
36834;BME280;48003;52.084;5.224;2023-04-26T07:54:32;102042.0;;;10.39;55.6
36834;BME280;48003;52.084;5.224;2023-04-26T07:57:44;102046.0;;;10.63;54.77
36834;BME280;48003;52.084;5.224;2023-04-26T07:59:20;102049.0;;;10.52;55.14
36834;BME280;48003;52.084;5.224;2023-04-26T08:00:56;102051.0;;;10.44;54.87
36834;BME280;48003;52.084;5.224;2023-04-26T08:04:09;102046.0;;;10.79;54.67
36834;BME280;48003;52.084;5.224;2023-04-26T08:05:45;102050.0;;;10.79;53.96
36834;BME280;48003;52.084;5.224;2023-04-26T08:07:21;102044.0;;;11.02;53.14
36834;BME280;48003;52.084;5.224;2023-04-26T08:08:57;102050.0;;;11.05;52.75
36834;BME280;48003;52.084;5.224;2023-04-26T08:12:10;102055.0;;;10.99;51.96
36834;BME280;48003;52.084;5.224;2023-04-26T08:13:46;102047.0;;;11.08;51.79
36834;BME280;48003;52.084;5.224;2023-04-26T08:15:23;102047.0;;;11.04;50.85
36834;BME280;48003;52.084;5.224;2023-04-26T08:18:36;102043.0;;;10.97;50.78
36834;BME280;48003;52.084;5.224;2023-04-26T08:20:12;102043.0;;;10.94;51.5
36834;BME280;48003;52.084;5.224;2023-04-26T08:21:48;102047.0;;;10.92;52.04
36834;BME280;48003;52.084;5.224;2023-04-26T08:25:00;102046.0;;;10.87;52.01
36834;BME280;48003;52.084;5.224;2023-04-26T08:26:37;102046.0;;;11.07;51.39
36834;BME280;48003;52.084;5.224;2023-04-26T08:31:25;102046.0;;;10.99;52.03
36834;BME280;48003;52.084;5.224;2023-04-26T08:33:02;102046.0;;;10.99;51.85
36834;BME280;48003;52.084;5.224;2023-04-26T08:34:38;102046.0;;;10.82;51.39
36834;BME280;48003;52.084;5.224;2023-04-26T08:36:14;102047.0;;;10.74;51.96
36834;BME280;48003;52.084;5.224;2023-04-26T08:39:27;102044.0;;;10.71;52.62
36834;BME280;48003;52.084;5.224;2023-04-26T08:41:04;102047.0;;;10.69;53.0
36834;BME280;48003;52.084;5.224;2023-04-26T08:42:41;102049.0;;;10.8;53.55
36834;BME280;48003;52.084;5.224;2023-04-26T08:45:58;102050.0;;;10.79;53.99
36834;BME280;48003;52.084;5.224;2023-04-26T08:47:39;102047.0;;;10.84;54.21
36834;BME280;48003;52.084;5.224;2023-04-26T08:49:24;102052.0;;;10.91;54.22
36834;BME280;48003;52.084;5.224;2023-04-26T08:51:11;102055.0;;;10.93;54.44
36834;BME280;48003;52.084;5.224;2023-04-26T08:54:27;102055.0;;;10.95;53.9
36834;BME280;48003;52.084;5.224;2023-04-26T08:56:03;102050.0;;;10.95;53.93
36834;BME280;48003;52.084;5.224;2023-04-26T08:57:42;102051.0;;;10.94;54.46
36834;BME280;48003;52.084;5.224;2023-04-26T08:59:18;102051.0;;;10.88;54.43
36834;BME280;48003;52.084;5.224;2023-04-26T09:02:33;102050.0;;;10.86;53.68
36834;BME280;48003;52.084;5.224;2023-04-26T09:04:10;102049.0;;;10.84;53.2
36834;BME280;48003;52.084;5.224;2023-04-26T09:05:47;102047.0;;;10.84;53.79
36834;BME280;48003;52.084;5.224;2023-04-26T09:09:07;102045.0;;;10.86;53.95
36834;BME280;48003;52.084;5.224;2023-04-26T09:10:45;102045.0;;;10.89;54.12
36834;BME280;48003;52.084;5.224;2023-04-26T09:12:22;102049.0;;;10.87;53.86
36834;BME280;48003;52.084;5.224;2023-04-26T09:13:58;102044.0;;;10.9;52.79
36834;BME280;48003;52.084;5.224;2023-04-26T09:17:24;102046.0;;;10.94;52.74
36834;BME280;48003;52.084;5.224;2023-04-26T09:19:01;102045.0;;;10.96;52.33
36834;BME280;48003;52.084;5.224;2023-04-26T09:20:37;102046.0;;;10.98;52.66
36834;BME280;48003;52.084;5.224;2023-04-26T09:22:13;102048.0;;;11.0;53.16
36834;BME280;48003;52.084;5.224;2023-04-26T09:25:34;102051.0;;;10.67;53.24
36834;BME280;48003;52.084;5.224;2023-04-26T09:27:10;102048.0;;;11.08;52.97
36834;BME280;48003;52.084;5.224;2023-04-26T09:28:47;102050.0;;;11.38;52.08
36834;BME280;48003;52.084;5.224;2023-04-26T09:32:00;102045.0;;;11.39;51.5
36834;BME280;48003;52.084;5.224;2023-04-26T09:33:56;102048.0;;;11.31;51.18
36834;BME280;48003;52.084;5.224;2023-04-26T09:35:33;102047.0;;;11.32;51.18
36834;BME280;48003;52.084;5.224;2023-04-26T09:37:10;102051.0;;;10.86;51.5
36834;BME280;48003;52.084;5.224;2023-04-26T09:40:22;102049.0;;;11.49;50.54
36834;BME280;48003;52.084;5.224;2023-04-26T09:42:02;102048.0;;;11.9;50.65
36834;BME280;48003;52.084;5.224;2023-04-26T09:43:39;102051.0;;;11.93;49.72
36834;BME280;48003;52.084;5.224;2023-04-26T09:45:16;102053.0;;;11.93;48.62
36834;BME280;48003;52.084;5.224;2023-04-26T09:48:38;102047.0;;;12.01;48.4
36834;BME280;48003;52.084;5.224;2023-04-26T09:50:24;102050.0;;;12.05;48.51
36834;BME280;48003;52.084;5.224;2023-04-26T09:52:03;102053.0;;;11.92;48.36
36834;BME280;48003;52.084;5.224;2023-04-26T09:53:41;102048.0;;;12.03;48.06
36834;BME280;48003;52.084;5.224;2023-04-26T09:57:03;102048.0;;;12.13;47.82
36834;BME280;48003;52.084;5.224;2023-04-26T09:58:54;102042.0;;;12.17;48.36
36834;BME280;48003;52.084;5.224;2023-04-26T10:00:33;102043.0;;;12.15;47.83
36834;BME280;48003;52.084;5.224;2023-04-26T10:02:13;102043.0;;;12.14;47.35
36834;BME280;48003;52.084;5.224;2023-04-26T10:05:28;102046.0;;;12.07;47.41
36834;BME280;48003;52.084;5.224;2023-04-26T10:07:04;102041.0;;;12.08;47.41
36834;BME280;48003;52.084;5.224;2023-04-26T10:08:41;102040.0;;;12.07;47.26
36834;BME280;48003;52.084;5.224;2023-04-26T10:10:18;102041.0;;;12.0;47.24
36834;BME280;48003;52.084;5.224;2023-04-26T10:13:34;102038.0;;;11.96;47.46
36834;BME280;48003;52.084;5.224;2023-04-26T10:15:10;102043.0;;;12.01;47.66
36834;BME280;48003;52.084;5.224;2023-04-26T10:16:48;102043.0;;;11.98;47.56
36834;BME280;48003;52.084;5.224;2023-04-26T10:20:01;102044.0;;;11.94;47.61
36834;BME280;48003;52.084;5.224;2023-04-26T10:21:41;102046.0;;;11.88;47.58
36834;BME280;48003;52.084;5.224;2023-04-26T10:23:19;102050.0;;;11.77;47.72
36834;BME280;48003;52.084;5.224;2023-04-26T10:24:57;102047.0;;;11.78;47.64
36834;BME280;48003;52.084;5.224;2023-04-26T10:28:58;102049.0;;;11.68;48.03
36834;BME280;48003;52.084;5.224;2023-04-26T10:30:53;102047.0;;;11.6;48.31
36834;BME280;48003;52.084;5.224;2023-04-26T10:32:29;102044.0;;;11.57;48.19
36834;BME280;48003;52.084;5.224;2023-04-26T10:34:21;102048.0;;;11.6;48.49
36834;BME280;48003;52.084;5.224;2023-04-26T10:35:59;102045.0;;;11.48;48.56
36834;BME280;48003;52.084;5.224;2023-04-26T10:38:12;102050.0;;;11.41;49.07
36834;BME280;48003;52.084;5.224;2023-04-26T10:40:22;102046.0;;;11.19;49.38
36834;BME280;48003;52.084;5.224;2023-04-26T10:42:29;102047.0;;;11.18;49.72
36834;BME280;48003;52.084;5.224;2023-04-26T10:44:39;102047.0;;;11.07;50.42
36834;BME280;48003;52.084;5.224;2023-04-26T10:46:37;102049.0;;;11.14;50.62
36834;BME280;48003;52.084;5.224;2023-04-26T10:48:15;102050.0;;;11.21;50.58
36834;BME280;48003;52.084;5.224;2023-04-26T10:52:18;102049.0;;;11.2;50.37
36834;BME280;48003;52.084;5.224;2023-04-26T10:53:58;102051.0;;;11.16;50.59
36834;BME280;48003;52.084;5.224;2023-04-26T10:55:37;102049.0;;;11.2;50.87
36834;BME280;48003;52.084;5.224;2023-04-26T10:57:14;102051.0;;;11.17;50.77
36834;BME280;48003;52.084;5.224;2023-04-26T10:59:06;102052.0;;;11.19;50.76
36834;BME280;48003;52.084;5.224;2023-04-26T11:01:02;102052.0;;;11.19;51.12
36834;BME280;48003;52.084;5.224;2023-04-26T11:02:43;102051.0;;;11.17;51.03
36834;BME280;48003;52.084;5.224;2023-04-26T11:05:56;102046.0;;;11.22;50.85
36834;BME280;48003;52.084;5.224;2023-04-26T11:07:36;102046.0;;;11.24;50.84
36834;BME280;48003;52.084;5.224;2023-04-26T11:09:47;102042.0;;;11.28;51.24
36834;BME280;48003;52.084;5.224;2023-04-26T11:11:25;102043.0;;;11.29;51.33
36834;BME280;48003;52.084;5.224;2023-04-26T11:13:02;102043.0;;;11.23;51.17
36834;BME280;48003;52.084;5.224;2023-04-26T11:17:53;102038.0;;;11.46;49.84